Time;durP1;ratioP1;P1;durP2;ratioP2;P2;SDS_P1;SDS_P2;PMS_P1;PMS_P2;Temp;Humidity;BMP_temperature;BMP_pressure;BME280_temperature;BME280_humidity;BME280_pressure;Samples;Min_cycle;Max_cycle;Signal;HPM_P1;HPM_P2
2022/11/22 00:01:20;;;;;;;28.33;12.30;;;;;;;;;;5062794;28;20038;-70
2022/11/22 00:03:46;;;;;;;26.70;12.67;;;;;;;;;;5062718;28;20031;-70
2022/11/22 00:06:11;;;;;;;22.60;11.67;;;;;;;;;;5062938;28;20134;-69
2022/11/22 00:08:37;;;;;;;23.30;11.97;;;;;;;;;;5062651;28;20154;-68
2022/11/22 00:11:02;;;;;;;25.67;12.70;;;;;;;;;;5062654;28;20048;-68
2022/11/22 00:13:28;;;;;;;30.07;11.50;;;;;;;;;;5062589;28;20031;-69
2022/11/22 00:16:00;;;;;;;27.83;12.03;;;;;;;;;;5062473;28;20042;-68
2022/11/22 00:18:26;;;;;;;24.03;11.53;;;;;;;;;;5062486;28;20084;-67
2022/11/22 00:20:52;;;;;;;25.83;11.60;;;;;;;;;;5062329;28;20036;-68
2022/11/22 00:23:18;;;;;;;25.63;11.77;;;;;;;;;;5062282;28;20038;-68
2022/11/22 00:25:44;;;;;;;24.83;11.43;;;;;;;;;;5079442;28;20100;-66
2022/11/22 00:28:09;;;;;;;25.90;11.53;;;;;;;;;;5062229;28;20490;-68
2022/11/22 00:30:35;;;;;;;24.43;11.73;;;;;;;;;;5062136;28;20205;-68
2022/11/22 00:33:01;;;;;;;22.70;10.77;;;;;;;;;;5062059;28;20059;-68
2022/11/22 00:35:27;;;;;;;25.67;11.80;;;;;;;;;;5062322;28;20036;-67
2022/11/22 00:37:52;;;;;;;22.10;11.00;;;;;;;;;;5061941;28;20050;-68
2022/11/22 00:40:18;;;;;;;26.07;12.20;;;;;;;;;;5061987;28;20040;-68
2022/11/22 00:42:43;;;;;;;22.63;11.20;;;;;;;;;;5062076;28;20031;-67
2022/11/22 00:45:09;;;;;;;22.43;11.03;;;;;;;;;;5061994;28;20036;-68
2022/11/22 00:47:35;;;;;;;26.77;12.27;;;;;;;;;;5078605;28;20116;-67
2022/11/22 00:50:00;;;;;;;24.70;10.83;;;;;;;;;;5061463;28;20046;-68
2022/11/22 00:52:26;;;;;;;25.27;11.27;;;;;;;;;;5061783;28;20039;-67
2022/11/22 00:54:52;;;;;;;25.70;11.90;;;;;;;;;;5061656;28;20039;-68
2022/11/22 00:57:17;;;;;;;25.87;11.77;;;;;;;;;;5078011;28;20035;-68
2022/11/22 00:59:43;;;;;;;26.43;11.53;;;;;;;;;;5078504;28;20062;-67
2022/11/22 01:02:08;;;;;;;24.57;11.77;;;;;;;;;;5061599;28;20492;-67
2022/11/22 01:04:34;;;;;;;27.57;11.70;;;;;;;;;;5078155;28;20031;-67
2022/11/22 01:07:00;;;;;;;26.53;11.17;;;;;;;;;;5061472;28;20032;-68
2022/11/22 01:09:26;;;;;;;27.80;12.33;;;;;;;;;;5078195;28;20032;-67
2022/11/22 01:11:52;;;;;;;27.93;12.77;;;;;;;;;;5061185;28;20044;-68
2022/11/22 01:14:17;;;;;;;28.93;12.77;;;;;;;;;;5078630;28;20381;-67
2022/11/22 01:16:43;;;;;;;31.73;12.50;;;;;;;;;;5061434;28;20036;-67
2022/11/22 01:19:09;;;;;;;30.63;12.97;;;;;;;;;;5077901;28;20082;-68
2022/11/22 01:21:35;;;;;;;25.77;11.80;;;;;;;;;;5077946;28;20031;-68
2022/11/22 01:24:01;;;;;;;29.27;12.60;;;;;;;;;;5061264;28;20046;-69
2022/11/22 01:26:26;;;;;;;27.20;12.30;;;;;;;;;;5061306;28;20038;-69
2022/11/22 01:28:52;;;;;;;28.70;12.40;;;;;;;;;;5061101;28;20032;-70
2022/11/22 01:31:18;;;;;;;32.37;13.83;;;;;;;;;;5061162;28;20128;-69
2022/11/22 01:33:44;;;;;;;29.87;13.33;;;;;;;;;;5061219;28;20569;-69
2022/11/22 01:36:09;;;;;;;34.37;13.57;;;;;;;;;;5077824;28;20028;-69
2022/11/22 01:38:35;;;;;;;29.47;12.80;;;;;;;;;;5112540;28;20126;-70
2022/11/22 01:41:00;;;;;;;33.43;13.43;;;;;;;;;;5060857;28;20100;-69
2022/11/22 01:43:27;;;;;;;23.40;11.93;;;;;;;;;;5060957;28;20039;-68
2022/11/22 01:45:53;;;;;;;26.63;12.83;;;;;;;;;;5061018;28;20049;-70
2022/11/22 01:48:22;;;;;;;26.17;12.23;;;;;;;;;;5061206;28;20039;-69
2022/11/22 01:50:50;;;;;;;29.20;12.87;;;;;;;;;;5077775;28;20055;-69
2022/11/22 01:53:19;;;;;;;26.33;12.43;;;;;;;;;;5061182;28;20058;-69
2022/11/22 01:55:45;;;;;;;27.37;13.47;;;;;;;;;;5077498;28;20057;-69
2022/11/22 01:58:11;;;;;;;26.40;12.33;;;;;;;;;;5060805;28;20164;-69
2022/11/22 02:00:37;;;;;;;30.70;12.80;;;;;;;;;;5094345;28;20067;-69
2022/11/22 02:03:04;;;;;;;25.53;12.37;;;;;;;;;;5094468;28;20070;-69
2022/11/22 02:05:31;;;;;;;25.40;12.10;;;;;;;;;;5077808;28;20556;-69
2022/11/22 02:07:59;;;;;;;30.87;11.53;;;;;;;;;;5078056;28;20053;-69
2022/11/22 02:10:26;;;;;;;26.60;12.27;;;;;;;;;;5065083;28;20078;-69
2022/11/22 02:12:53;;;;;;;29.27;13.10;;;;;;;;;;5064819;28;20114;-70
2022/11/22 02:15:18;;;;;;;22.73;10.47;;;;;;;;;;5098793;28;20043;-69
2022/11/22 02:17:44;;;;;;;24.83;11.10;;;;;;;;;;5064811;28;20148;-69
2022/11/22 02:20:10;;;;;;;26.53;12.27;;;;;;;;;;5081348;28;20039;-68
2022/11/22 02:22:48;;;;;;;30.27;12.83;;;;;;;;;;5064744;28;20027;-68
2022/11/22 02:25:31;;;;;;;30.10;11.90;;;;;;;;;;5064593;28;20139;-68
2022/11/22 02:27:57;;;;;;;21.90;11.50;;;;;;;;;;5062583;28;20051;-69
2022/11/22 02:30:23;;;;;;;27.30;11.77;;;;;;;;;;5044622;28;20039;-69
2022/11/22 02:32:49;;;;;;;26.27;11.87;;;;;;;;;;5061396;28;20078;-70
2022/11/22 02:35:14;;;;;;;23.17;11.13;;;;;;;;;;5044374;28;20067;-69
2022/11/22 02:37:40;;;;;;;28.03;12.30;;;;;;;;;;5061019;28;20423;-68
2022/11/22 02:40:07;;;;;;;29.10;11.40;;;;;;;;;;5044287;28;20028;-69
2022/11/22 02:42:34;;;;;;;29.37;13.20;;;;;;;;;;5044410;28;20040;-69
2022/11/22 02:45:00;;;;;;;25.07;12.47;;;;;;;;;;5043929;28;20528;-69
2022/11/22 02:47:25;;;;;;;27.57;11.87;;;;;;;;;;5077765;28;20035;-69
2022/11/22 02:49:52;;;;;;;26.67;11.40;;;;;;;;;;5044350;28;20043;-68
2022/11/22 02:52:17;;;;;;;28.87;11.03;;;;;;;;;;5043924;28;20044;-68
2022/11/22 02:54:43;;;;;;;29.37;12.93;;;;;;;;;;5060341;28;20036;-68
2022/11/22 02:57:09;;;;;;;28.80;11.93;;;;;;;;;;5043936;28;20666;-68
2022/11/22 02:59:34;;;;;;;27.60;12.13;;;;;;;;;;5043701;28;20056;-69
2022/11/22 03:02:00;;;;;;;26.87;11.10;;;;;;;;;;5043753;28;20470;-69
2022/11/22 03:04:25;;;;;;;28.90;11.33;;;;;;;;;;5060345;28;20051;-70
2022/11/22 03:06:53;;;;;;;27.93;12.10;;;;;;;;;;5060519;28;20054;-70
2022/11/22 03:09:18;;;;;;;29.60;12.27;;;;;;;;;;5043730;28;20039;-69
2022/11/22 03:11:46;;;;;;;30.50;12.47;;;;;;;;;;5043466;28;20044;-69
2022/11/22 03:14:13;;;;;;;31.50;12.57;;;;;;;;;;5060061;28;20153;-70
2022/11/22 03:16:38;;;;;;;27.20;11.67;;;;;;;;;;5076647;28;20054;-70
2022/11/22 03:19:04;;;;;;;25.37;11.63;;;;;;;;;;5042664;28;20035;-69
2022/11/22 03:21:29;;;;;;;28.63;12.50;;;;;;;;;;5043434;28;20059;-69
2022/11/22 03:23:55;;;;;;;28.90;12.67;;;;;;;;;;5050799;28;20141;-69
2022/11/22 03:26:21;;;;;;;24.43;10.67;;;;;;;;;;5080102;28;20035;-70
2022/11/22 03:28:46;;;;;;;28.80;11.20;;;;;;;;;;5063305;28;20042;-70
2022/11/22 03:31:12;;;;;;;25.07;10.60;;;;;;;;;;5062027;28;20481;-70
2022/11/22 03:33:37;;;;;;;28.77;11.13;;;;;;;;;;5062318;28;20134;-69
2022/11/22 03:36:03;;;;;;;27.20;11.03;;;;;;;;;;5063070;28;20055;-70
2022/11/22 03:38:29;;;;;;;23.67;11.00;;;;;;;;;;5079561;28;20435;-70
2022/11/22 03:40:54;;;;;;;24.77;10.53;;;;;;;;;;5063244;28;20044;-70
2022/11/22 03:43:20;;;;;;;31.30;12.03;;;;;;;;;;5062776;28;20046;-69
2022/11/22 03:45:46;;;;;;;22.27;10.27;;;;;;;;;;5079835;28;20074;-68
2022/11/22 03:48:12;;;;;;;26.53;10.70;;;;;;;;;;5062659;28;20040;-69
2022/11/22 03:50:37;;;;;;;26.23;11.57;;;;;;;;;;5079237;28;20538;-69
2022/11/22 03:53:03;;;;;;;23.70;10.57;;;;;;;;;;5062835;28;20039;-69
2022/11/22 03:55:28;;;;;;;27.00;11.60;;;;;;;;;;5062880;28;20543;-70
2022/11/22 03:57:56;;;;;;;26.63;11.33;;;;;;;;;;5062969;28;20403;-69
2022/11/22 04:00:22;;;;;;;27.50;11.03;;;;;;;;;;5095970;28;20043;-68
2022/11/22 04:02:49;;;;;;;28.10;11.47;;;;;;;;;;5062985;28;20061;-68
2022/11/22 04:05:15;;;;;;;26.13;11.03;;;;;;;;;;5046019;28;20036;-70
2022/11/22 04:07:41;;;;;;;24.90;11.53;;;;;;;;;;5096012;28;20104;-70
2022/11/22 04:10:06;;;;;;;26.03;10.30;;;;;;;;;;5062338;28;20472;-70
2022/11/22 04:12:33;;;;;;;23.40;9.80;;;;;;;;;;5062506;28;20365;-69
2022/11/22 04:15:05;;;;;;;23.07;10.97;;;;;;;;;;5079095;28;20047;-71
2022/11/22 04:17:44;;;;;;;24.23;10.77;;;;;;;;;;5062099;28;20043;-73
2022/11/22 04:23:05;;;;;;;23.07;9.83;;;;;;;;;;5078643;28;20036;-70
2022/11/22 04:25:32;;;;;;;26.27;11.50;;;;;;;;;;5095493;28;20067;-70
2022/11/22 04:27:57;;;;;;;26.40;10.50;;;;;;;;;;5062113;28;20497;-68
2022/11/22 04:32:44;;;;;;;24.77;10.23;;;;;;;;;;5078020;28;20040;-70
2022/11/22 04:33:09;;;;;;;28.07;11.90;;;;;;;;;;5078011;28;20104;-69
2022/11/22 04:35:35;;;;;;;27.77;11.33;;;;;;;;;;5061717;28;20030;-68
2022/11/22 04:38:00;;;;;;;26.30;10.90;;;;;;;;;;5061853;28;20130;-72
2022/11/22 04:40:26;;;;;;;27.10;11.40;;;;;;;;;;5079016;28;20051;-69
2022/11/22 04:45:36;;;;;;;25.63;10.87;;;;;;;;;;5078252;28;20032;-73
2022/11/22 04:48:02;;;;;;;26.53;11.17;;;;;;;;;;5078562;28;20047;-72
2022/11/22 04:53:14;;;;;;;21.00;9.53;;;;;;;;;;5078214;28;20618;-72
2022/11/22 04:55:40;;;;;;;27.17;10.83;;;;;;;;;;5078079;28;20032;-71
2022/11/22 04:58:06;;;;;;;20.73;9.40;;;;;;;;;;5061196;28;20457;-72
2022/11/22 05:00:32;;;;;;;23.87;10.27;;;;;;;;;;5061489;28;20040;-72
2022/11/22 05:02:58;;;;;;;22.47;10.00;;;;;;;;;;5061522;28;20111;-72
2022/11/22 05:05:24;;;;;;;23.00;9.97;;;;;;;;;;5078097;28;20031;-71
2022/11/22 05:07:49;;;;;;;20.93;9.97;;;;;;;;;;5061056;28;20043;-74
2022/11/22 05:10:15;;;;;;;25.37;9.97;;;;;;;;;;5077633;28;20473;-75
2022/11/22 05:12:41;;;;;;;31.07;10.40;;;;;;;;;;5060980;28;20035;-74
2022/11/22 05:15:09;;;;;;;22.60;9.23;;;;;;;;;;5060643;28;20050;-72
2022/11/22 05:17:35;;;;;;;22.37;9.90;;;;;;;;;;5061212;28;20051;-70
2022/11/22 05:20:00;;;;;;;20.80;9.17;;;;;;;;;;5078003;28;20144;-70
2022/11/22 05:25:10;;;;;;;21.67;9.40;;;;;;;;;;5077362;28;20447;-71
2022/11/22 05:27:36;;;;;;;15.97;6.97;;;;;;;;;;5077639;28;20031;-71
2022/11/22 05:30:02;;;;;;;24.50;9.40;;;;;;;;;;5077752;28;20046;-72
2022/11/22 05:32:29;;;;;;;19.53;8.23;;;;;;;;;;5061477;28;20427;-71
2022/11/22 05:34:55;;;;;;;19.07;8.33;;;;;;;;;;5077427;28;20028;-70
2022/11/22 05:37:21;;;;;;;18.17;8.40;;;;;;;;;;5056741;28;20031;-71
2022/11/22 05:39:47;;;;;;;20.83;8.50;;;;;;;;;;5039916;28;20192;-71
2022/11/22 05:42:12;;;;;;;22.43;8.87;;;;;;;;;;5038847;28;20119;-71
2022/11/22 05:44:38;;;;;;;20.33;8.50;;;;;;;;;;5056820;28;20071;-70
2022/11/22 05:47:04;;;;;;;22.57;8.30;;;;;;;;;;5073614;28;20051;-70
2022/11/22 05:49:30;;;;;;;19.47;8.70;;;;;;;;;;5040041;28;20039;-70
2022/11/22 05:51:55;;;;;;;20.77;9.60;;;;;;;;;;5056319;28;20127;-69
2022/11/22 05:54:21;;;;;;;16.33;7.83;;;;;;;;;;5039968;28;20188;-69
2022/11/22 05:56:47;;;;;;;19.00;8.13;;;;;;;;;;5039895;28;20454;-70
2022/11/22 05:59:13;;;;;;;17.50;7.83;;;;;;;;;;5039485;28;20136;-70
2022/11/22 06:01:39;;;;;;;19.73;7.57;;;;;;;;;;5039261;28;20755;-68
2022/11/22 06:04:04;;;;;;;15.77;6.87;;;;;;;;;;5040194;28;20035;-73
2022/11/22 06:06:30;;;;;;;20.90;7.97;;;;;;;;;;5040211;28;20377;-67
2022/11/22 06:08:57;;;;;;;18.03;7.90;;;;;;;;;;5040024;28;20032;-68
2022/11/22 06:11:24;;;;;;;17.70;7.67;;;;;;;;;;5057539;28;20047;-67
2022/11/22 06:13:54;;;;;;;13.90;6.87;;;;;;;;;;5043202;28;20059;-67
2022/11/22 06:16:20;;;;;;;18.05;7.95;;;;;;;;;;5081482;28;20115;-67
2022/11/22 06:18:46;;;;;;;12.57;6.50;;;;;;;;;;5056161;28;20077;-70
2022/11/22 06:21:13;;;;;;;16.17;6.83;;;;;;;;;;5069908;28;20028;-68
2022/11/22 06:23:39;;;;;;;13.13;6.83;;;;;;;;;;5048642;28;20473;-67
2022/11/22 06:26:06;;;;;;;12.37;6.60;;;;;;;;;;5066182;28;20050;-68
2022/11/22 06:28:32;;;;;;;11.13;5.93;;;;;;;;;;5047735;28;20028;-69
2022/11/22 06:31:03;;;;;;;16.07;6.97;;;;;;;;;;5048689;28;20044;-67
2022/11/22 06:33:29;;;;;;;10.68;5.22;;;;;;;;;;5065901;28;20074;-68
2022/11/22 06:36:00;;;;;;;9.97;5.53;;;;;;;;;;5047414;28;20071;-67
2022/11/22 06:38:26;;;;;;;11.77;5.70;;;;;;;;;;5047448;28;20080;-68
2022/11/22 06:40:51;;;;;;;10.93;5.00;;;;;;;;;;5049102;28;20032;-69
2022/11/22 06:43:18;;;;;;;12.73;5.70;;;;;;;;;;5047988;28;20135;-68
2022/11/22 06:45:44;;;;;;;13.67;5.27;;;;;;;;;;5048091;28;20023;-68
2022/11/22 06:48:09;;;;;;;10.17;5.37;;;;;;;;;;5065525;28;20045;-70
2022/11/22 06:50:35;;;;;;;8.67;4.63;;;;;;;;;;5047452;28;20119;-67
2022/11/22 06:53:01;;;;;;;14.73;5.20;;;;;;;;;;5048283;28;20036;-68
2022/11/22 06:55:26;;;;;;;9.60;4.50;;;;;;;;;;5068442;28;20345;-68
2022/11/22 06:57:52;;;;;;;11.67;5.07;;;;;;;;;;5050931;28;20101;-70
2022/11/22 07:00:22;;;;;;;7.87;4.57;;;;;;;;;;5052272;28;20401;-70
2022/11/22 07:02:49;;;;;;;7.70;4.03;;;;;;;;;;5070593;28;20178;-68
2022/11/22 07:05:15;;;;;;;9.40;4.43;;;;;;;;;;5058210;28;20142;-68
2022/11/22 07:07:40;;;;;;;14.73;4.80;;;;;;;;;;5069289;28;20050;-69
2022/11/22 07:10:07;;;;;;;9.10;4.53;;;;;;;;;;5069224;28;20088;-71
2022/11/22 07:12:33;;;;;;;14.90;4.87;;;;;;;;;;5049914;28;20486;-67
2022/11/22 07:14:59;;;;;;;7.27;4.23;;;;;;;;;;5051241;28;20374;-69
2022/11/22 07:17:24;;;;;;;11.40;4.60;;;;;;;;;;5052198;28;20059;-67
2022/11/22 07:19:50;;;;;;;6.73;3.87;;;;;;;;;;5066807;28;20152;-67
2022/11/22 07:22:19;;;;;;;9.83;4.23;;;;;;;;;;5050632;28;20088;-70
2022/11/22 07:24:45;;;;;;;9.57;3.90;;;;;;;;;;5066629;28;20131;-74
2022/11/22 07:27:10;;;;;;;6.60;3.77;;;;;;;;;;5048069;28;20433;-70
2022/11/22 07:29:36;;;;;;;6.73;3.87;;;;;;;;;;5067015;28;20032;-69
2022/11/22 07:32:02;;;;;;;12.60;4.47;;;;;;;;;;5066730;28;20048;-69
2022/11/22 07:34:27;;;;;;;7.97;4.43;;;;;;;;;;5050334;28;20027;-70
2022/11/22 07:36:53;;;;;;;14.20;4.17;;;;;;;;;;5052708;28;20478;-69
2022/11/22 07:39:19;;;;;;;8.70;4.83;;;;;;;;;;5073756;28;20046;-70
2022/11/22 07:41:46;;;;;;;7.00;4.43;;;;;;;;;;5051332;28;20032;-70
2022/11/22 07:44:12;;;;;;;11.60;5.13;;;;;;;;;;5052109;28;20028;-69
2022/11/22 07:46:37;;;;;;;9.07;4.80;;;;;;;;;;5067517;28;20066;-69
2022/11/22 07:49:03;;;;;;;9.33;5.20;;;;;;;;;;5051782;28;20051;-69
2022/11/22 07:51:29;;;;;;;9.83;4.63;;;;;;;;;;5068081;28;20468;-71
2022/11/22 07:53:55;;;;;;;8.67;5.17;;;;;;;;;;5060129;28;20046;-70
2022/11/22 07:56:21;;;;;;;11.83;5.43;;;;;;;;;;5067638;28;20060;-70
2022/11/22 07:58:46;;;;;;;10.17;4.83;;;;;;;;;;5050107;28;20150;-70
2022/11/22 08:01:13;;;;;;;10.03;5.33;;;;;;;;;;5052349;28;20192;-70
2022/11/22 08:03:39;;;;;;;7.93;4.60;;;;;;;;;;5083976;28;20526;-70
2022/11/22 08:06:06;;;;;;;11.87;5.03;;;;;;;;;;5050735;28;20111;-70
2022/11/22 08:08:32;;;;;;;14.17;5.30;;;;;;;;;;5068483;28;20057;-69
2022/11/22 08:10:57;;;;;;;12.40;5.70;;;;;;;;;;5050032;28;20036;-69
2022/11/22 08:13:23;;;;;;;8.87;5.13;;;;;;;;;;5066447;28;20035;-70
2022/11/22 08:15:49;;;;;;;9.60;6.00;;;;;;;;;;5055773;28;20028;-69
2022/11/22 08:18:15;;;;;;;14.80;5.73;;;;;;;;;;5069079;28;20039;-69
2022/11/22 08:20:41;;;;;;;12.83;6.23;;;;;;;;;;5067106;28;20028;-69
2022/11/22 08:23:07;;;;;;;11.50;5.67;;;;;;;;;;5050957;28;20126;-71
2022/11/22 08:25:32;;;;;;;11.17;5.50;;;;;;;;;;5082946;28;20433;-69
2022/11/22 08:27:58;;;;;;;11.53;5.30;;;;;;;;;;5051256;28;20039;-69
2022/11/22 08:30:24;;;;;;;13.13;5.30;;;;;;;;;;5067102;28;20024;-69
2022/11/22 08:32:50;;;;;;;6.83;4.03;;;;;;;;;;5065839;28;20050;-69
2022/11/22 08:35:16;;;;;;;7.30;4.77;;;;;;;;;;5049249;28;20054;-68
2022/11/22 08:37:42;;;;;;;8.40;3.90;;;;;;;;;;5050147;28;20027;-65
2022/11/22 08:40:16;;;;;;;5.80;3.83;;;;;;;;;;5084039;28;20024;-68
2022/11/22 08:42:48;;;;;;;6.60;4.53;;;;;;;;;;5074127;28;20045;-67
2022/11/22 08:45:14;;;;;;;6.33;3.93;;;;;;;;;;5067595;28;20023;-66
2022/11/22 08:47:39;;;;;;;7.37;4.20;;;;;;;;;;5049307;28;20734;-70
2022/11/22 08:50:06;;;;;;;6.17;3.63;;;;;;;;;;5049847;28;20089;-69
2022/11/22 08:52:33;;;;;;;13.03;4.67;;;;;;;;;;5066912;28;20043;-69
2022/11/22 08:55:01;;;;;;;23.67;4.10;;;;;;;;;;5072178;28;20047;-69
2022/11/22 08:57:28;;;;;;;6.50;3.97;;;;;;;;;;5066618;28;20039;-68
2022/11/22 08:59:54;;;;;;;7.87;4.30;;;;;;;;;;5050807;28;20103;-68
2022/11/22 09:02:20;;;;;;;7.10;4.13;;;;;;;;;;5046280;28;20038;-70
2022/11/22 09:04:47;;;;;;;7.20;3.97;;;;;;;;;;5051757;28;20138;-71
2022/11/22 09:07:13;;;;;;;11.80;4.00;;;;;;;;;;5080840;28;20032;-71
2022/11/22 09:09:38;;;;;;;8.97;4.20;;;;;;;;;;5048371;28;20044;-71
2022/11/22 09:12:04;;;;;;;9.27;3.70;;;;;;;;;;5048900;28;20044;-71
2022/11/22 09:14:30;;;;;;;7.10;3.60;;;;;;;;;;5048309;28;20050;-70
2022/11/22 09:16:56;;;;;;;4.73;3.13;;;;;;;;;;5071784;28;20032;-70
2022/11/22 09:19:22;;;;;;;4.87;3.40;;;;;;;;;;5064790;28;20119;-71
2022/11/22 09:21:47;;;;;;;4.97;3.27;;;;;;;;;;5048599;28;20059;-71
2022/11/22 09:24:13;;;;;;;5.03;2.93;;;;;;;;;;5050569;28;20040;-74
2022/11/22 09:26:39;;;;;;;5.23;3.17;;;;;;;;;;5049998;28;20448;-72
2022/11/22 09:29:04;;;;;;;4.63;2.93;;;;;;;;;;5048347;28;20535;-72
2022/11/22 09:31:31;;;;;;;4.67;2.77;;;;;;;;;;5047836;28;20046;-71
2022/11/22 09:33:57;;;;;;;5.20;3.00;;;;;;;;;;5050189;28;20035;-71
2022/11/22 09:36:27;;;;;;;4.10;3.07;;;;;;;;;;5051831;28;20431;-65
2022/11/22 09:38:54;;;;;;;5.47;2.97;;;;;;;;;;5066193;28;20034;-66
2022/11/22 09:41:39;;;;;;;5.63;2.90;;;;;;;;;;5048310;28;20032;-66
2022/11/22 09:44:17;;;;;;;6.37;3.13;;;;;;;;;;5050064;28;20038;-66
2022/11/22 09:46:55;;;;;;;7.93;3.00;;;;;;;;;;5066145;28;20035;-66
2022/11/22 09:49:39;;;;;;;5.33;3.27;;;;;;;;;;5047646;28;20032;-66
2022/11/22 09:52:05;;;;;;;7.57;3.50;;;;;;;;;;5067234;28;20131;-66
2022/11/22 09:54:35;;;;;;;3.80;2.83;;;;;;;;;;5047866;28;20139;-65
2022/11/22 09:57:03;;;;;;;5.93;3.38;;;;;;;;;;5065558;28;20062;-66
2022/11/22 09:59:31;;;;;;;3.63;2.70;;;;;;;;;;5069835;28;20071;-67
2022/11/22 10:01:57;;;;;;;6.27;3.13;;;;;;;;;;5046603;28;20062;-66
2022/11/22 10:04:32;;;;;;;5.03;3.00;;;;;;;;;;5063679;28;20060;-67
2022/11/22 10:06:59;;;;;;;5.40;2.97;;;;;;;;;;5049251;28;20080;-67
2022/11/22 10:09:26;;;;;;;6.83;3.70;;;;;;;;;;5082207;28;20074;-66
2022/11/22 10:11:57;;;;;;;5.27;3.03;;;;;;;;;;5046589;28;20117;-67
2022/11/22 10:14:45;;;;;;;6.33;3.27;;;;;;;;;;5049904;28;20581;-70
2022/11/22 10:17:17;;;;;;;4.33;3.00;;;;;;;;;;5053672;28;20044;-66
2022/11/22 10:19:50;;;;;;;7.97;2.97;;;;;;;;;;5066171;28;20463;-66
2022/11/22 10:22:16;;;;;;;9.90;3.17;;;;;;;;;;5066241;28;20033;-66
2022/11/22 10:24:42;;;;;;;8.03;3.17;;;;;;;;;;5066146;28;20036;-66
2022/11/22 10:27:12;;;;;;;6.20;3.33;;;;;;;;;;5047570;28;20046;-66
2022/11/22 10:30:00;;;;;;;15.90;3.30;;;;;;;;;;5049604;28;20088;-66
2022/11/22 10:32:31;;;;;;;17.73;3.63;;;;;;;;;;5048014;28;20054;-67
2022/11/22 10:35:15;;;;;;;8.07;2.78;;;;;;;;;;5048843;28;20039;-68
2022/11/22 10:37:51;;;;;;;9.90;3.13;;;;;;;;;;5053018;28;20096;-65
2022/11/22 10:40:32;;;;;;;7.93;3.27;;;;;;;;;;5085493;28;20469;-66
2022/11/22 10:43:24;;;;;;;6.55;3.25;;;;;;;;;;5068777;28;20034;-65
2022/11/22 10:46:10;;;;;;;5.83;3.57;;;;;;;;;;5053355;28;20160;-65
2022/11/22 10:48:55;;;;;;;6.40;3.53;;;;;;;;;;5087035;28;20028;-66
2022/11/22 10:51:24;;;;;;;11.43;3.43;;;;;;;;;;5069165;28;20200;-65
2022/11/22 10:54:28;;;;;;;7.90;3.67;;;;;;;;;;5067701;28;20104;-65
2022/11/22 10:57:17;;;;;;;14.37;4.27;;;;;;;;;;5005640;28;20037;-68
2022/11/22 10:59:54;;;;;;;34.70;5.43;;;;;;;;;;4975870;28;20116;-70
2022/11/22 11:02:42;;;;;;;9.27;3.80;;;;;;;;;;5058586;28;20036;-67
2022/11/22 11:05:11;;;;;;;7.07;3.27;;;;;;;;;;5053241;28;20032;-67
2022/11/22 11:07:39;;;;;;;11.10;3.70;;;;;;;;;;5078986;28;20035;-73
2022/11/22 11:10:16;;;;;;;9.47;4.00;;;;;;;;;;5092952;28;20070;-68
2022/11/22 11:12:53;;;;;;;12.20;3.40;;;;;;;;;;5051668;28;20040;-69
2022/11/22 11:15:21;;;;;;;16.13;4.30;;;;;;;;;;5070262;28;20040;-67
2022/11/22 11:17:54;;;;;;;5.90;3.73;;;;;;;;;;5050652;28;20032;-66
2022/11/22 11:20:37;;;;;;;7.00;3.03;;;;;;;;;;5067719;28;20047;-67
2022/11/22 11:23:03;;;;;;;4.40;3.53;;;;;;;;;;5069319;28;20050;-66
2022/11/22 11:25:34;;;;;;;6.37;2.97;;;;;;;;;;5052598;28;20085;-68
2022/11/22 11:28:04;;;;;;;5.90;3.60;;;;;;;;;;5069036;28;20064;-72
2022/11/22 11:30:41;;;;;;;6.57;3.30;;;;;;;;;;5066695;28;20377;-68
2022/11/22 11:33:18;;;;;;;6.03;4.00;;;;;;;;;;5060704;28;20039;-74
2022/11/22 11:35:45;;;;;;;6.87;3.80;;;;;;;;;;5060333;28;20051;-73
2022/11/22 11:38:26;;;;;;;4.67;3.30;;;;;;;;;;5060711;28;20042;-72
2022/11/22 11:40:51;;;;;;;4.50;3.03;;;;;;;;;;5073725;28;21160;-70
2022/11/22 11:43:26;;;;;;;8.33;4.80;;;;;;;;;;5064019;28;20040;-72
2022/11/22 11:46:16;;;;;;;6.70;4.40;;;;;;;;;;5056656;28;20043;-74
2022/11/22 11:48:45;;;;;;;8.23;4.57;;;;;;;;;;5052594;28;20174;-68
2022/11/22 11:51:26;;;;;;;8.93;4.63;;;;;;;;;;5051989;28;20040;-69
2022/11/22 11:53:55;;;;;;;7.87;4.87;;;;;;;;;;5051159;28;20046;-71
2022/11/22 11:56:30;;;;;;;8.63;4.53;;;;;;;;;;5066671;28;20126;-70
2022/11/22 11:58:59;;;;;;;7.97;4.47;;;;;;;;;;5071931;28;20067;-72
2022/11/22 12:01:26;;;;;;;5.97;4.30;;;;;;;;;;5038724;28;20028;-72
2022/11/22 12:03:56;;;;;;;7.00;3.93;;;;;;;;;;5038979;28;20043;-71
2022/11/22 12:06:26;;;;;;;7.35;4.07;;;;;;;;;;5072833;28;20044;-67
2022/11/22 12:08:52;;;;;;;13.50;5.00;;;;;;;;;;5072018;28;20114;-67
2022/11/22 12:11:25;;;;;;;6.70;4.50;;;;;;;;;;5054715;28;20463;-68
2022/11/22 12:13:56;;;;;;;13.23;4.97;;;;;;;;;;5038186;28;20032;-67
2022/11/22 12:16:30;;;;;;;8.38;4.57;;;;;;;;;;5060536;28;20078;-67
2022/11/22 12:19:11;;;;;;;10.13;5.50;;;;;;;;;;5065271;28;20126;-70
2022/11/22 12:21:36;;;;;;;7.87;4.87;;;;;;;;;;5062748;28;20031;-69
2022/11/22 12:24:09;;;;;;;8.07;4.90;;;;;;;;;;5082834;28;20407;-68
2022/11/22 12:26:35;;;;;;;6.53;4.73;;;;;;;;;;5039848;28;20430;-69
2022/11/22 12:29:05;;;;;;;8.63;4.77;;;;;;;;;;5059211;28;20043;-68
2022/11/22 12:31:46;;;;;;;10.10;4.70;;;;;;;;;;5086608;28;20079;-69
2022/11/22 12:34:35;;;;;;;8.87;5.33;;;;;;;;;;5047512;28;20024;-69
2022/11/22 12:40:38;;;;;;;6.43;3.57;;;;;;;;;;5057806;28;20136;-72
2022/11/22 12:43:04;;;;;;;;;;;;;;;;;;5044480;28;20025;-72
2022/11/22 12:45:39;;;;;;;8.03;3.80;;;;;;;;;;5048211;28;19913;-68
2022/11/22 12:48:08;;;;;;;5.70;4.10;;;;;;;;;;5059174;28;20056;-68
2022/11/22 12:50:40;;;;;;;4.73;4.03;;;;;;;;;;5062167;28;20028;-67
2022/11/22 12:53:13;;;;;;;9.50;5.37;;;;;;;;;;5048239;28;20134;-67
2022/11/22 12:55:43;;;;;;;7.90;5.83;;;;;;;;;;5048775;28;20134;-67
2022/11/22 12:58:10;;;;;;;8.93;5.03;;;;;;;;;;5071427;28;20112;-67
2022/11/22 13:00:43;;;;;;;11.80;6.20;;;;;;;;;;5058200;28;20031;-67
2022/11/22 13:03:19;;;;;;;9.47;7.07;;;;;;;;;;5057373;28;20031;-67
2022/11/22 13:05:44;;;;;;;10.30;6.87;;;;;;;;;;5068575;28;20028;-67
2022/11/22 13:08:15;;;;;;;11.03;6.77;;;;;;;;;;5039049;28;20036;-67
2022/11/22 13:10:41;;;;;;;;;;;;;;;;;;5039022;28;20473;-68
2022/11/22 13:13:12;;;;;;;10.73;6.90;;;;;;;;;;5046666;28;19923;-67
2022/11/22 13:15:39;;;;;;;;;;;;;;;;;;5072656;28;20100;-68
2022/11/22 13:18:09;;;;;;;11.37;7.70;;;;;;;;;;5049676;28;20018;-69
2022/11/22 13:20:41;;;;;;;10.48;7.03;;;;;;;;;;5050634;28;20523;-68
2022/11/22 13:23:22;;;;;;;12.07;6.50;;;;;;;;;;5065837;28;20040;-68
2022/11/22 13:26:08;;;;;;;13.07;6.32;;;;;;;;;;5064111;28;20038;-68
2022/11/22 13:28:38;;;;;;;9.43;6.37;;;;;;;;;;5082513;28;20378;-68
2022/11/22 13:31:04;;;;;;;10.30;6.33;;;;;;;;;;5048999;28;20047;-69
2022/11/22 13:33:30;;;;;;;14.27;7.07;;;;;;;;;;5067435;28;20039;-68
2022/11/22 13:36:15;;;;;;;15.60;8.67;;;;;;;;;;5048636;28;20031;-69
2022/11/22 13:38:42;;;;;;;14.30;8.23;;;;;;;;;;5049540;28;20036;-68
2022/11/22 13:41:28;;;;;;;16.10;8.43;;;;;;;;;;5050196;28;20040;-69
2022/11/22 13:43:54;;;;;;;19.13;7.57;;;;;;;;;;5066244;28;20043;-68
2022/11/22 13:46:39;;;;;;;15.87;7.50;;;;;;;;;;5065490;28;20070;-68
2022/11/22 13:49:14;;;;;;;14.13;8.20;;;;;;;;;;5050150;28;20031;-70
2022/11/22 13:51:54;;;;;;;31.30;9.57;;;;;;;;;;5047251;28;20093;-69
2022/11/22 13:54:32;;;;;;;15.70;7.37;;;;;;;;;;5048681;28;20101;-70
2022/11/22 13:56:59;;;;;;;14.23;7.33;;;;;;;;;;5049957;28;20100;-70
2022/11/22 13:59:25;;;;;;;12.63;7.70;;;;;;;;;;5100521;28;20078;-68
2022/11/22 14:01:54;;;;;;;20.70;7.53;;;;;;;;;;5047782;28;20063;-69
2022/11/22 14:04:26;;;;;;;9.60;6.53;;;;;;;;;;5071311;28;20141;-68
2022/11/22 14:06:54;;;;;;;14.30;7.03;;;;;;;;;;5056240;28;20068;-68
2022/11/22 14:09:31;;;;;;;15.63;7.43;;;;;;;;;;5072132;28;20028;-69
2022/11/22 14:11:56;;;;;;;12.77;7.20;;;;;;;;;;5065170;28;20401;-70
2022/11/22 14:14:34;;;;;;;143.00;12.27;;;;;;;;;;5078825;28;20101;-68
2022/11/22 14:17:00;;;;;;;184.50;15.77;;;;;;;;;;5072790;28;20036;-71
2022/11/22 14:19:45;;;;;;;13.50;8.53;;;;;;;;;;5055033;28;20035;-68
2022/11/22 14:22:33;;;;;;;59.47;9.63;;;;;;;;;;5068588;28;20370;-68
2022/11/22 14:25:20;;;;;;;15.30;7.73;;;;;;;;;;5056502;28;20377;-69
2022/11/22 14:27:57;;;;;;;13.93;7.90;;;;;;;;;;5056222;28;20028;-70
2022/11/22 14:30:37;;;;;;;16.87;9.43;;;;;;;;;;5089826;28;20028;-69
2022/11/22 14:33:14;;;;;;;17.17;8.45;;;;;;;;;;5073901;28;20039;-70
2022/11/22 14:35:59;;;;;;;17.07;9.27;;;;;;;;;;5057577;28;20505;-69
2022/11/22 14:38:27;;;;;;;18.77;8.10;;;;;;;;;;5055535;28;20056;-70
2022/11/22 14:41:13;;;;;;;14.67;9.17;;;;;;;;;;5056302;28;20058;-69
2022/11/22 14:43:40;;;;;;;25.63;9.63;;;;;;;;;;5054679;28;20040;-69
2022/11/22 14:46:16;;;;;;;54.53;11.00;;;;;;;;;;5071998;28;20035;-69
2022/11/22 14:48:48;;;;;;;184.30;15.83;;;;;;;;;;5056781;28;20039;-71
2022/11/22 14:51:20;;;;;;;17.73;9.10;;;;;;;;;;5054482;28;20043;-69
2022/11/22 14:53:51;;;;;;;19.67;9.27;;;;;;;;;;5070864;28;20059;-70
2022/11/22 14:56:37;;;;;;;17.43;9.40;;;;;;;;;;5052350;28;20485;-70